createdAt,value
2022-11-16T00:02:18.296Z,67.89
2022-11-16T00:04:44.881Z,67.20
2022-11-16T00:07:11.540Z,66.78
2022-11-16T00:09:38.340Z,66.82
2022-11-16T00:12:07.154Z,66.54
2022-11-16T00:14:35.359Z,66.46
2022-11-16T00:17:03.199Z,70.17
2022-11-16T00:19:29.872Z,74.72
2022-11-16T00:21:56.723Z,75.67
2022-11-16T00:24:23.829Z,72.13
2022-11-16T00:26:51.192Z,72.34
2022-11-16T00:29:25.352Z,70.18
2022-11-16T00:31:52.627Z,69.66
2022-11-16T00:34:19.909Z,68.68
2022-11-16T00:36:46.968Z,68.09
2022-11-16T00:39:15.191Z,68.62
2022-11-16T00:41:43.205Z,68.14
2022-11-16T00:44:10.504Z,67.35
2022-11-16T00:46:37.479Z,67.58
2022-11-16T00:49:05.686Z,66.82
2022-11-16T00:51:33.231Z,67.29
2022-11-16T00:53:59.896Z,67.48
2022-11-16T00:56:26.522Z,68.13
2022-11-16T00:58:53.192Z,68.16
2022-11-16T01:01:19.968Z,67.57
2022-11-16T01:03:47.824Z,66.87
2022-11-16T01:06:16.058Z,66.48
2022-11-16T01:08:43.859Z,66.60
2022-11-16T01:11:32.754Z,66.00
2022-11-16T01:14:06.151Z,65.34
2022-11-16T01:16:33.003Z,65.93
2022-11-16T01:18:59.899Z,67.47
2022-11-16T01:21:27.847Z,67.19
2022-11-16T01:23:55.762Z,67.60
2022-11-16T01:26:22.504Z,67.28
2022-11-16T01:28:49.124Z,65.88
2022-11-16T01:31:15.804Z,65.52
2022-11-16T01:33:42.469Z,65.63
2022-11-16T01:36:14.785Z,65.94
2022-11-16T01:38:46.034Z,66.22
2022-11-16T01:41:18.565Z,66.05
2022-11-16T01:43:57.381Z,66.08
2022-11-16T01:46:25.028Z,65.84
2022-11-16T01:48:58.182Z,65.29
2022-11-16T01:51:26.913Z,66.06
2022-11-16T01:53:54.045Z,67.41
2022-11-16T01:56:21.833Z,67.32
2022-11-16T01:58:49.747Z,67.57
2022-11-16T02:01:16.519Z,67.61
2022-11-16T02:03:43.228Z,68.18
2022-11-16T02:06:27.754Z,67.91
2022-11-16T02:09:43.027Z,67.63
2022-11-16T02:12:30.694Z,67.16
2022-11-16T02:15:18.478Z,66.92
2022-11-16T02:18:10.245Z,67.69
2022-11-16T02:20:45.755Z,71.22
2022-11-16T02:23:30.614Z,68.97
2022-11-16T02:26:34.471Z,67.35
2022-11-16T02:29:22.599Z,66.83
2022-11-16T02:32:11.447Z,65.61
2022-11-16T02:34:45.224Z,66.31
2022-11-16T02:37:16.211Z,66.76
2022-11-16T02:39:45.531Z,66.73
2022-11-16T02:42:17.306Z,65.76
2022-11-16T02:44:50.123Z,65.12
2022-11-16T02:47:24.365Z,65.10
2022-11-16T02:50:03.376Z,64.84
2022-11-16T02:52:30.066Z,64.65
2022-11-16T02:54:56.668Z,65.15
2022-11-16T02:57:49.299Z,66.13
2022-11-16T03:00:21.322Z,66.33
2022-11-16T03:03:14.407Z,66.53
2022-11-16T03:05:58.312Z,67.27
2022-11-16T03:08:35.478Z,67.14
2022-11-16T03:11:27.030Z,67.20
2022-11-16T03:14:00.781Z,67.19
2022-11-16T03:16:33.258Z,66.82
2022-11-16T03:19:03.574Z,66.84
2022-11-16T03:21:39.800Z,66.77
2022-11-16T03:24:07.706Z,67.29
2022-11-16T03:26:44.440Z,67.40
2022-11-16T03:29:20.219Z,67.61
2022-11-16T03:31:51.830Z,68.01
2022-11-16T03:34:23.531Z,68.17
2022-11-16T03:36:52.901Z,68.53
2022-11-16T03:39:29.213Z,67.81
2022-11-16T03:41:58.071Z,67.14
2022-11-16T03:44:25.715Z,66.64
2022-11-16T03:46:52.482Z,66.12
2022-11-16T03:49:23.597Z,65.98
2022-11-16T03:51:51.820Z,66.06
2022-11-16T03:54:18.493Z,66.78
2022-11-16T03:56:45.129Z,67.85
2022-11-16T03:59:12.369Z,67.92
2022-11-16T04:01:44.383Z,68.16
2022-11-16T04:04:31.391Z,67.78
2022-11-16T04:07:16.770Z,68.23
2022-11-16T04:10:02.261Z,68.60
2022-11-16T04:12:47.354Z,69.43
2022-11-16T04:15:32.879Z,71.65
2022-11-16T04:18:18.096Z,70.63
2022-11-16T04:21:03.652Z,68.97
2022-11-16T04:23:48.910Z,69.71
2022-11-16T04:26:15.943Z,68.94
2022-11-16T04:28:42.927Z,69.38
2022-11-16T04:31:28.175Z,69.90
2022-11-16T04:34:13.469Z,69.41
2022-11-16T04:36:58.604Z,68.86
2022-11-16T04:39:25.297Z,69.24
2022-11-16T04:42:10.516Z,69.10
2022-11-16T04:44:55.670Z,69.09
2022-11-16T04:47:22.295Z,68.92
2022-11-16T04:49:49.010Z,69.00
2022-11-16T04:52:15.694Z,70.93
2022-11-16T04:54:42.293Z,70.01
2022-11-16T04:57:09.079Z,69.82
2022-11-16T04:59:35.714Z,70.03
2022-11-16T05:02:08.324Z,69.47
2022-11-16T05:04:44.471Z,70.47
2022-11-16T05:07:14.647Z,69.61
2022-11-16T05:09:43.486Z,69.13
2022-11-16T05:12:11.776Z,68.29
2022-11-16T05:14:38.359Z,69.04
2022-11-16T05:17:05.011Z,68.63
2022-11-16T05:19:50.331Z,69.35
2022-11-16T05:22:16.963Z,71.91
2022-11-16T05:24:44.180Z,69.48
2022-11-16T05:27:14.279Z,69.48
2022-11-16T05:29:41.069Z,68.68
2022-11-16T05:32:08.125Z,69.31
2022-11-16T05:34:34.795Z,70.64
2022-11-16T05:37:02.276Z,69.49
2022-11-16T05:39:29.108Z,68.42
2022-11-16T05:41:56.822Z,68.67
2022-11-16T05:44:23.792Z,68.61
2022-11-16T05:46:50.982Z,71.57
2022-11-16T05:49:24.333Z,71.21
2022-11-16T05:51:51.542Z,69.94
2022-11-16T05:54:21.242Z,68.38
2022-11-16T05:56:49.449Z,68.83
2022-11-16T05:59:18.555Z,67.51
2022-11-16T06:01:45.274Z,68.60
2022-11-16T06:04:12.434Z,69.34
2022-11-16T06:06:39.045Z,68.83
2022-11-16T06:09:06.080Z,68.82
2022-11-16T06:11:36.040Z,67.90
2022-11-16T06:14:03.233Z,67.73
2022-11-16T06:16:30.116Z,74.61
2022-11-16T06:18:56.759Z,73.61
2022-11-16T06:21:23.339Z,74.03
2022-11-16T06:23:50.070Z,75.27
2022-11-16T06:26:16.688Z,72.67
2022-11-16T06:28:43.509Z,71.17
2022-11-16T06:31:10.137Z,74.18
2022-11-16T06:33:36.993Z,72.38
2022-11-16T06:36:03.933Z,70.99
2022-11-16T06:38:30.659Z,70.63
2022-11-16T06:40:58.830Z,74.77
2022-11-16T06:43:26.302Z,74.13
2022-11-16T06:45:55.533Z,70.68
2022-11-16T06:48:22.795Z,71.95
2022-11-16T06:50:50.821Z,72.23
2022-11-16T06:53:18.343Z,74.82
2022-11-16T06:55:45.053Z,73.67
2022-11-16T06:58:11.855Z,70.36
2022-11-16T07:00:38.543Z,69.75
2022-11-16T07:03:05.515Z,69.08
2022-11-16T07:05:32.476Z,70.65
2022-11-16T07:07:59.527Z,69.40
2022-11-16T07:10:26.562Z,69.08
2022-11-16T07:12:53.226Z,67.75
2022-11-16T07:15:20.156Z,68.86
2022-11-16T07:17:47.067Z,68.13
2022-11-16T07:20:14.230Z,67.05
2022-11-16T07:22:40.918Z,68.31
2022-11-16T07:25:08.268Z,68.44
2022-11-16T07:27:34.949Z,68.31
2022-11-16T07:30:02.288Z,68.25
2022-11-16T07:32:31.246Z,74.96
2022-11-16T07:34:59.402Z,70.70
2022-11-16T07:37:26.444Z,70.71
2022-11-16T07:39:53.085Z,70.52
2022-11-16T07:42:19.749Z,68.54
2022-11-16T07:44:46.395Z,70.66
2022-11-16T07:47:13.025Z,74.70
2022-11-16T07:49:39.647Z,72.52
2022-11-16T07:52:10.187Z,71.05
2022-11-16T07:54:37.315Z,70.58
2022-11-16T07:57:03.973Z,74.10
2022-11-16T07:59:30.640Z,71.56
2022-11-16T08:01:59.266Z,73.36
2022-11-16T08:04:26.150Z,71.90
2022-11-16T08:06:52.872Z,72.31
2022-11-16T08:09:19.741Z,71.35
2022-11-16T08:11:47.255Z,72.66
2022-11-16T08:14:14.165Z,75.48
2022-11-16T08:16:40.743Z,74.09
2022-11-16T08:19:07.307Z,76.19
2022-11-16T08:21:33.889Z,76.48
2022-11-16T08:24:00.520Z,73.44
2022-11-16T08:26:27.670Z,71.50
2022-11-16T08:28:56.493Z,74.34
2022-11-16T08:31:28.052Z,74.92
2022-11-16T08:33:54.844Z,72.43
2022-11-16T08:36:21.545Z,75.58
2022-11-16T08:38:49.322Z,72.36
2022-11-16T08:41:17.354Z,71.26
2022-11-16T08:43:44.677Z,69.78
2022-11-16T08:46:11.649Z,68.83
2022-11-16T08:48:39.003Z,70.19
2022-11-16T08:51:19.575Z,71.25
2022-11-16T08:53:48.585Z,72.39
2022-11-16T08:56:17.337Z,70.73
2022-11-16T08:58:44.426Z,69.37
2022-11-16T09:01:19.341Z,68.31
2022-11-16T09:03:46.696Z,68.56
2022-11-16T09:06:14.870Z,69.04
2022-11-16T09:08:44.320Z,68.91
2022-11-16T09:11:14.140Z,68.59
2022-11-16T09:13:40.719Z,67.81
2022-11-16T09:16:07.660Z,67.41
2022-11-16T09:18:35.236Z,69.62
2022-11-16T09:21:02.317Z,71.44
2022-11-16T09:23:28.970Z,68.91
2022-11-16T09:25:55.590Z,68.51
2022-11-16T09:28:22.825Z,71.24
2022-11-16T09:30:51.246Z,71.15
2022-11-16T09:33:17.905Z,70.82
2022-11-16T09:35:44.675Z,68.95
2022-11-16T09:38:15.978Z,73.95
2022-11-16T09:40:47.530Z,72.80
2022-11-16T09:44:05.939Z,69.84
2022-11-16T09:46:37.599Z,69.58
2022-11-16T09:49:17.224Z,68.20
2022-11-16T09:51:50.169Z,69.30
2022-11-16T09:54:44.584Z,71.43
2022-11-16T09:57:15.177Z,71.35
2022-11-16T09:59:49.868Z,71.71
2022-11-16T10:02:23.900Z,70.77
2022-11-16T10:05:18.117Z,69.76
2022-11-16T10:07:48.358Z,68.72
2022-11-16T10:10:30.471Z,67.92
2022-11-16T10:13:12.757Z,69.27
2022-11-16T10:16:05.014Z,69.55
2022-11-16T10:18:52.732Z,71.09
2022-11-16T10:21:43.830Z,73.11
2022-11-16T10:24:33.330Z,72.83
2022-11-16T10:27:51.106Z,68.87
2022-11-16T10:30:20.476Z,68.93
2022-11-16T10:32:53.319Z,69.00
2022-11-16T10:35:25.697Z,68.76
2022-11-16T10:37:52.381Z,66.73
2022-11-16T10:40:19.537Z,67.89
2022-11-16T10:43:13.234Z,66.47
2022-11-16T10:46:16.789Z,64.70
2022-11-16T10:48:57.143Z,65.60
2022-11-16T10:51:23.792Z,67.73
2022-11-16T10:53:50.876Z,69.61
2022-11-16T10:56:40.519Z,68.44
2022-11-16T10:59:09.438Z,66.93
2022-11-16T11:01:43.670Z,66.54
2022-11-16T11:04:12.917Z,66.53
2022-11-16T11:06:40.300Z,67.27
2022-11-16T11:09:22.011Z,66.35
2022-11-16T11:12:36.041Z,64.96
2022-11-16T11:15:11.539Z,65.38
2022-11-16T11:17:40.797Z,64.36
2022-11-16T11:20:18.344Z,64.06
2022-11-16T11:23:00.558Z,63.16
2022-11-16T11:25:29.837Z,62.42
2022-11-16T11:28:17.979Z,62.57
2022-11-16T11:31:11.842Z,61.72
2022-11-16T11:34:02.465Z,62.79
2022-11-16T11:36:36.027Z,62.43
2022-11-16T11:39:07.641Z,61.80
2022-11-16T11:41:41.570Z,60.67
2022-11-16T11:44:14.051Z,60.66
2022-11-16T11:47:50.269Z,60.45
2022-11-16T11:49:59.128Z,62.78
2022-11-16T11:52:48.645Z,62.44
2022-11-16T11:55:17.963Z,61.38
2022-11-16T11:57:47.659Z,60.95
2022-11-16T12:00:15.769Z,60.44
2022-11-16T12:02:45.210Z,60.57
2022-11-16T12:05:47.511Z,59.83
2022-11-16T12:08:41.773Z,60.59
2022-11-16T12:11:34.735Z,61.31
2022-11-16T12:14:16.190Z,61.90
2022-11-16T12:17:00.930Z,62.90
2022-11-16T12:19:56.305Z,61.56
2022-11-16T12:22:35.090Z,63.47
2022-11-16T12:25:10.989Z,63.19
2022-11-16T12:28:13.138Z,61.71
2022-11-16T12:30:48.376Z,61.47
2022-11-16T12:33:37.416Z,62.39
2022-11-16T12:36:36.279Z,65.45
2022-11-16T12:39:08.399Z,62.27
2022-11-16T12:41:46.681Z,61.67
2022-11-16T12:44:26.796Z,62.44
2022-11-16T12:47:05.724Z,60.04
2022-11-16T12:50:24.660Z,62.14
2022-11-16T12:53:08.146Z,61.01
2022-11-16T12:55:58.730Z,61.74
2022-11-16T12:58:38.924Z,62.92
2022-11-16T13:01:24.785Z,63.62
2022-11-16T13:03:58.575Z,60.86
2022-11-16T13:06:32.246Z,60.31
2022-11-16T13:09:05.956Z,61.51
2022-11-16T13:11:40.269Z,63.39
2022-11-16T13:14:12.964Z,61.64
2022-11-16T13:16:39.789Z,60.36
2022-11-16T13:19:10.265Z,59.76
2022-11-16T13:22:03.242Z,59.87
2022-11-16T13:24:41.599Z,60.66
2022-11-16T13:27:35.568Z,60.85
2022-11-16T13:30:21.718Z,62.13
2022-11-16T13:33:20.534Z,60.65
2022-11-16T13:35:47.149Z,60.81
2022-11-16T13:38:14.162Z,61.61
2022-11-16T13:40:41.469Z,60.84
2022-11-16T13:43:10.932Z,60.73
2022-11-16T13:45:43.542Z,61.34
2022-11-16T13:48:21.241Z,60.90
2022-11-16T13:50:57.792Z,60.58
2022-11-16T13:56:18.195Z,60.46
2022-11-16T13:58:51.593Z,59.65
2022-11-16T14:01:19.359Z,60.26
2022-11-16T14:03:51.811Z,60.34
2022-11-16T14:06:28.821Z,60.12
2022-11-16T14:08:59.329Z,60.59
2022-11-16T14:11:46.185Z,61.26
2022-11-16T14:14:51.320Z,61.43
2022-11-16T14:17:55.498Z,60.89
2022-11-16T14:21:03.733Z,61.02
2022-11-16T14:23:46.631Z,60.57
2022-11-16T14:26:18.847Z,60.73
2022-11-16T14:29:20.202Z,60.21
2022-11-16T14:31:57.134Z,59.94
2022-11-16T14:34:30.623Z,60.20
2022-11-16T14:36:59.026Z,60.60
2022-11-16T14:39:33.696Z,60.38
2022-11-16T14:42:05.943Z,60.25
2022-11-16T14:44:39.124Z,60.24
2022-11-16T14:47:17.673Z,60.41
2022-11-16T14:49:46.533Z,60.43
2022-11-16T14:52:15.162Z,60.77
2022-11-16T14:54:52.409Z,60.36
2022-11-16T14:57:22.132Z,60.88
2022-11-16T14:59:49.778Z,62.34
2022-11-16T15:02:23.077Z,60.55
2022-11-16T15:04:51.485Z,62.52
2022-11-16T15:07:20.009Z,61.85
2022-11-16T15:09:53.103Z,61.70
2022-11-16T15:12:41.377Z,61.45
2022-11-16T15:15:28.396Z,61.21
2022-11-16T15:18:00.917Z,61.61
2022-11-16T15:20:30.033Z,61.44
2022-11-16T15:23:03.555Z,61.05
2022-11-16T15:25:40.734Z,61.19
2022-11-16T15:28:17.945Z,62.01
2022-11-16T15:31:04.722Z,61.50
2022-11-16T15:33:41.389Z,61.30
2022-11-16T15:36:38.764Z,60.97
2022-11-16T15:39:11.932Z,62.52
2022-11-16T15:41:39.518Z,62.33
2022-11-16T15:44:14.660Z,61.53
2022-11-16T15:46:45.667Z,61.41
2022-11-16T15:49:30.408Z,61.11
2022-11-16T15:52:00.919Z,61.17
2022-11-16T15:54:30.067Z,61.18
2022-11-16T15:57:06.856Z,61.46
2022-11-16T15:59:35.572Z,61.63
2022-11-16T16:02:03.356Z,61.61
2022-11-16T16:04:30.191Z,61.62
2022-11-16T16:07:00.579Z,61.23
2022-11-16T16:09:39.392Z,61.15
2022-11-16T16:12:23.311Z,61.34
2022-11-16T16:14:51.970Z,61.29
2022-11-16T16:17:28.036Z,61.39
2022-11-16T16:19:58.047Z,62.54
2022-11-16T16:22:32.163Z,61.87
2022-11-16T16:24:58.849Z,61.87
2022-11-16T16:27:27.612Z,61.76
2022-11-16T16:30:02.492Z,62.57
2022-11-16T16:32:31.561Z,63.48
2022-11-16T16:35:00.159Z,62.74
2022-11-16T16:37:28.635Z,63.06
2022-11-16T16:39:55.572Z,62.70
2022-11-16T16:42:22.639Z,62.53
2022-11-16T16:44:52.384Z,63.02
2022-11-16T16:47:22.905Z,63.25
2022-11-16T16:49:49.813Z,63.88
2022-11-16T16:52:16.566Z,63.03
2022-11-16T16:54:44.007Z,63.11
2022-11-16T16:57:15.664Z,62.86
2022-11-16T16:59:46.488Z,63.94
2022-11-16T17:02:14.369Z,63.68
2022-11-16T17:04:42.274Z,64.28
2022-11-16T17:07:09.367Z,63.74
2022-11-16T17:09:36.191Z,64.07
2022-11-16T17:12:03.078Z,63.90
2022-11-16T17:14:31.007Z,68.15
2022-11-16T17:16:58.133Z,66.70
2022-11-16T17:19:26.077Z,65.25
2022-11-16T17:21:52.857Z,65.31
2022-11-16T17:24:20.580Z,66.44
2022-11-16T17:26:53.053Z,66.27
2022-11-16T17:29:19.641Z,65.69
2022-11-16T17:31:50.852Z,65.78
2022-11-16T17:34:17.641Z,67.83
2022-11-16T17:36:44.981Z,67.57
2022-11-16T17:39:31.559Z,66.86
2022-11-16T17:41:58.289Z,68.10
2022-11-16T17:44:26.815Z,67.48
2022-11-16T17:46:54.042Z,67.33
2022-11-16T17:49:23.067Z,68.31
2022-11-16T17:51:53.527Z,68.54
2022-11-16T17:54:20.407Z,69.14
2022-11-16T17:56:48.859Z,68.11
2022-11-16T17:59:15.555Z,69.24
2022-11-16T18:01:45.376Z,68.30
2022-11-16T18:04:12.617Z,69.82
2022-11-16T18:06:40.073Z,68.55
2022-11-16T18:09:07.050Z,68.42
2022-11-16T18:11:34.072Z,68.58
2022-11-16T18:14:01.372Z,68.43
2022-11-16T18:16:32.397Z,69.53
2022-11-16T18:19:01.541Z,69.66
2022-11-16T18:21:28.612Z,69.04
2022-11-16T18:23:55.574Z,68.76
2022-11-16T18:26:23.791Z,69.41
2022-11-16T18:28:51.736Z,69.25
2022-11-16T18:31:20.966Z,69.20
2022-11-16T18:33:49.232Z,68.87
2022-11-16T18:36:18.221Z,68.97
2022-11-16T18:39:27.071Z,69.00
2022-11-16T18:41:55.332Z,69.31
2022-11-16T18:44:56.785Z,70.32
2022-11-16T18:47:23.695Z,70.64
2022-11-16T18:49:50.369Z,70.22
2022-11-16T18:52:17.033Z,69.79
2022-11-16T18:54:43.629Z,70.23
2022-11-16T18:57:10.360Z,70.27
2022-11-16T18:59:45.555Z,70.02
2022-11-16T19:02:14.113Z,78.25
2022-11-16T19:04:40.824Z,74.43
2022-11-16T19:07:07.981Z,71.94
2022-11-16T19:09:34.850Z,71.01
2022-11-16T19:12:01.534Z,72.04
2022-11-16T19:14:28.176Z,73.00
2022-11-16T19:16:57.230Z,73.15
2022-11-16T19:19:25.457Z,73.15
2022-11-16T19:21:52.238Z,75.69
2022-11-16T19:24:19.152Z,74.05
2022-11-16T19:26:46.090Z,73.69
2022-11-16T19:29:12.792Z,72.47
2022-11-16T19:31:39.431Z,72.20
2022-11-16T19:34:08.032Z,71.59
2022-11-16T19:36:36.543Z,72.04
2022-11-16T19:39:04.324Z,71.74
2022-11-16T19:41:33.458Z,70.99
2022-11-16T19:44:02.131Z,71.22
2022-11-16T19:46:31.400Z,71.67
2022-11-16T19:48:59.144Z,71.45
2022-11-16T19:51:27.556Z,71.36
2022-11-16T19:53:55.160Z,71.08
2022-11-16T19:56:23.633Z,71.37
2022-11-16T19:58:51.007Z,71.40
2022-11-16T20:01:29.867Z,71.29
2022-11-16T20:03:58.720Z,71.30
2022-11-16T20:06:29.201Z,71.81
2022-11-16T20:09:00.393Z,72.48
2022-11-16T20:11:29.226Z,73.73
2022-11-16T20:14:00.349Z,72.58
2022-11-16T20:16:37.036Z,72.18
2022-11-16T20:19:05.914Z,73.46
2022-11-16T20:21:35.608Z,72.20
2022-11-16T20:24:06.680Z,72.70
2022-11-16T20:26:35.068Z,72.23
2022-11-16T20:29:04.760Z,72.68
2022-11-16T20:31:33.792Z,73.09
2022-11-16T20:34:03.305Z,72.97
2022-11-16T20:36:31.795Z,72.44
2022-11-16T20:38:59.685Z,73.23
2022-11-16T20:41:28.709Z,73.33
2022-11-16T20:44:00.679Z,74.06
2022-11-16T20:46:31.035Z,73.03
2022-11-16T20:49:00.801Z,74.62
2022-11-16T20:51:28.857Z,74.63
2022-11-16T20:53:55.837Z,74.90
2022-11-16T20:56:22.649Z,73.98
2022-11-16T20:58:50.090Z,73.18
2022-11-16T21:01:29.788Z,73.05
2022-11-16T21:03:56.610Z,72.81
2022-11-16T21:06:23.381Z,73.02
2022-11-16T21:08:50.052Z,73.63
2022-11-16T21:11:22.960Z,74.32
2022-11-16T21:14:08.201Z,73.67
2022-11-16T21:16:35.048Z,74.44
2022-11-16T21:19:02.493Z,74.59
2022-11-16T21:21:29.590Z,73.88
2022-11-16T21:23:56.304Z,72.98
2022-11-16T21:26:25.238Z,73.15
2022-11-16T21:28:52.625Z,73.33
2022-11-16T21:31:21.682Z,76.08
2022-11-16T21:33:48.701Z,75.36
2022-11-16T21:36:17.371Z,74.35
2022-11-16T21:38:44.113Z,75.81
2022-11-16T21:41:12.404Z,74.48
2022-11-16T21:43:40.659Z,73.89
2022-11-16T21:46:11.197Z,74.49
2022-11-16T21:48:38.593Z,73.76
2022-11-16T21:51:16.488Z,73.60
2022-11-16T21:53:43.522Z,73.70
2022-11-16T21:56:15.821Z,73.26
2022-11-16T21:58:42.719Z,73.50
2022-11-16T22:01:10.942Z,73.26
2022-11-16T22:03:38.539Z,74.25
2022-11-16T22:06:25.812Z,73.37
2022-11-16T22:08:52.940Z,74.57
2022-11-16T22:11:22.091Z,74.06
2022-11-16T22:13:49.946Z,77.97
2022-11-16T22:16:18.411Z,77.08
2022-11-16T22:18:45.268Z,75.13
2022-11-16T22:21:12.609Z,74.69
2022-11-16T22:23:39.730Z,75.99
2022-11-16T22:26:09.380Z,74.60
2022-11-16T22:28:36.860Z,73.93
2022-11-16T22:31:06.047Z,73.56
2022-11-16T22:33:33.819Z,73.69
2022-11-16T22:36:00.916Z,76.17
2022-11-16T22:38:27.683Z,75.20
2022-11-16T22:40:56.313Z,75.65
2022-11-16T22:43:25.857Z,73.86
2022-11-16T22:45:59.976Z,73.07
2022-11-16T22:48:38.055Z,73.08
2022-11-16T22:51:17.660Z,75.38
2022-11-16T22:53:44.452Z,76.37
2022-11-16T22:56:11.442Z,76.08
2022-11-16T22:58:39.422Z,75.48
2022-11-16T23:01:08.663Z,76.13
2022-11-16T23:03:36.343Z,75.09
2022-11-16T23:06:04.177Z,75.31
2022-11-16T23:08:31.011Z,75.52
2022-11-16T23:11:27.957Z,75.36
2022-11-16T23:14:13.270Z,76.65
2022-11-16T23:16:40.949Z,75.33
2022-11-16T23:23:20.800Z,78.36
2022-11-16T23:26:06.234Z,77.84
2022-11-16T23:28:32.849Z,76.98
2022-11-16T23:31:00.429Z,75.68
2022-11-16T23:33:44.240Z,78.17
2022-11-16T23:36:25.440Z,76.08
2022-11-16T23:41:54.236Z,77.68
2022-11-16T23:44:22.152Z,76.15
2022-11-16T23:46:48.842Z,76.32
2022-11-16T23:49:15.432Z,75.30
2022-11-16T23:51:42.683Z,75.50
2022-11-16T23:54:13.106Z,74.91
2022-11-16T23:56:39.841Z,74.67
2022-11-16T23:59:06.511Z,74.75
